createdAt,value
2023-01-19T00:00:58.442Z,42.19
2023-01-19T00:01:58.403Z,42.24
2023-01-19T00:02:58.408Z,41.54
2023-01-19T00:03:58.360Z,38.69
2023-01-19T00:04:58.336Z,42.49
2023-01-19T00:05:58.336Z,42.60
2023-01-19T00:06:58.309Z,41.81
2023-01-19T00:07:58.746Z,43.64
2023-01-19T00:08:58.264Z,43.67
2023-01-19T00:09:58.248Z,42.33
2023-01-19T00:10:58.235Z,38.89
2023-01-19T00:11:58.215Z,42.07
2023-01-19T00:12:58.583Z,43.06
2023-01-19T00:13:58.183Z,42.05
2023-01-19T00:14:58.158Z,43.06
2023-01-19T00:15:58.180Z,41.95
2023-01-19T00:16:58.124Z,41.73
2023-01-19T00:17:58.083Z,41.86
2023-01-19T00:18:58.072Z,38.76
2023-01-19T00:19:58.052Z,39.47
2023-01-19T00:20:58.026Z,40.81
2023-01-19T00:21:58.025Z,41.08
2023-01-19T00:22:58.405Z,41.19
2023-01-19T00:23:57.983Z,41.88
2023-01-19T00:24:57.961Z,42.90
2023-01-19T00:25:57.947Z,41.85
2023-01-19T00:26:57.924Z,41.03
2023-01-19T00:27:59.857Z,39.86
2023-01-19T00:28:57.887Z,39.93
2023-01-19T00:29:57.865Z,38.98
2023-01-19T00:30:57.840Z,41.51
2023-01-19T00:31:57.821Z,39.70
2023-01-19T00:32:58.474Z,39.96
2023-01-19T00:33:57.786Z,41.73
2023-01-19T00:34:57.768Z,41.33
2023-01-19T00:35:57.747Z,37.76
2023-01-19T00:36:57.736Z,41.63
2023-01-19T00:37:57.709Z,40.01
2023-01-19T00:38:57.694Z,41.39
2023-01-19T00:39:57.670Z,40.91
2023-01-19T00:40:57.656Z,39.57
2023-01-19T00:41:57.630Z,39.00
2023-01-19T00:42:58.013Z,37.95
2023-01-19T00:43:57.582Z,40.45
2023-01-19T00:44:57.557Z,37.16
2023-01-19T00:45:57.557Z,39.91
2023-01-19T00:46:57.516Z,40.43
2023-01-19T00:47:57.515Z,37.34
2023-01-19T00:48:57.475Z,40.13
2023-01-19T00:49:57.449Z,37.48
2023-01-19T00:50:57.431Z,38.07
2023-01-19T00:51:57.423Z,38.02
2023-01-19T00:52:57.728Z,37.94
2023-01-19T00:53:57.387Z,35.78
2023-01-19T00:54:57.364Z,35.91
2023-01-19T00:55:57.346Z,39.55
2023-01-19T00:56:57.334Z,36.67
2023-01-19T00:57:57.308Z,35.79
2023-01-19T00:58:57.292Z,36.08
2023-01-19T00:59:57.268Z,36.35
2023-01-19T01:00:57.409Z,36.32
2023-01-19T01:01:57.359Z,38.48
2023-01-19T01:02:57.291Z,39.05
2023-01-19T01:03:57.209Z,34.46
2023-01-19T01:04:57.197Z,37.68
2023-01-19T01:05:57.178Z,36.90
2023-01-19T01:06:57.171Z,36.74
2023-01-19T01:07:57.156Z,39.19
2023-01-19T01:08:57.138Z,34.67
2023-01-19T01:09:57.136Z,30.82
2023-01-19T01:10:57.104Z,39.27
2023-01-19T01:11:57.097Z,36.60
2023-01-19T01:13:23.729Z,38.28
2023-01-19T01:13:58.068Z,38.41
2023-01-19T01:14:57.033Z,37.48
2023-01-19T01:15:57.041Z,38.11
2023-01-19T01:16:57.032Z,38.45
2023-01-19T01:17:56.977Z,38.68
2023-01-19T01:18:56.967Z,35.51
2023-01-19T01:19:56.950Z,40.56
2023-01-19T01:20:56.924Z,37.25
2023-01-19T01:21:56.907Z,29.77
2023-01-19T01:22:56.925Z,27.65
2023-01-19T01:23:56.894Z,34.88
2023-01-19T01:24:56.862Z,35.64
2023-01-19T01:25:56.851Z,34.53
2023-01-19T01:26:56.842Z,37.96
2023-01-19T01:27:56.810Z,37.43
2023-01-19T01:28:56.795Z,32.41
2023-01-19T01:29:56.777Z,37.02
2023-01-19T01:30:56.761Z,35.79
2023-01-19T01:31:56.786Z,35.94
2023-01-19T01:32:56.744Z,34.44
2023-01-19T01:33:56.725Z,30.63
2023-01-19T01:34:56.700Z,34.12
2023-01-19T01:35:56.694Z,35.49
2023-01-19T01:36:56.657Z,32.91
2023-01-19T01:37:56.641Z,29.30
2023-01-19T01:38:56.645Z,34.32
2023-01-19T01:39:56.609Z,33.98
2023-01-19T01:40:56.583Z,30.78
2023-01-19T01:41:56.640Z,30.89
2023-01-19T01:42:56.540Z,36.29
2023-01-19T01:43:56.535Z,34.36
2023-01-19T01:44:56.522Z,27.11
2023-01-19T01:45:56.515Z,31.09
2023-01-19T01:46:56.473Z,27.51
2023-01-19T01:47:56.442Z,33.71
2023-01-19T01:48:56.417Z,30.96
2023-01-19T01:49:56.383Z,32.11
2023-01-19T01:50:56.371Z,30.83
2023-01-19T01:51:56.351Z,31.00
2023-01-19T01:53:07.573Z,30.83
2023-01-19T01:54:56.297Z,31.34
2023-01-19T01:55:56.279Z,31.88
2023-01-19T01:56:56.263Z,30.38
2023-01-19T01:57:56.242Z,29.90
2023-01-19T01:58:56.213Z,33.23
2023-01-19T01:59:56.201Z,33.50
2023-01-19T02:00:56.240Z,29.00
2023-01-19T02:01:56.216Z,27.22
2023-01-19T02:02:56.225Z,27.60
2023-01-19T02:03:56.136Z,27.46
2023-01-19T02:04:56.100Z,27.87
2023-01-19T02:05:56.095Z,28.01
2023-01-19T02:06:56.078Z,29.08
2023-01-19T02:07:56.063Z,27.59
2023-01-19T02:08:56.043Z,28.28
2023-01-19T02:09:56.032Z,26.09
2023-01-19T02:10:55.995Z,28.40
2023-01-19T02:11:55.974Z,29.19
2023-01-19T02:12:55.959Z,26.84
2023-01-19T02:13:55.937Z,27.84
2023-01-19T02:14:55.914Z,29.52
2023-01-19T02:15:55.924Z,27.93
2023-01-19T02:16:55.927Z,27.27
2023-01-19T02:17:55.854Z,26.59
2023-01-19T02:18:55.831Z,29.07
2023-01-19T02:19:55.804Z,30.32
2023-01-19T02:20:55.785Z,25.85
2023-01-19T02:21:55.775Z,26.19
2023-01-19T02:22:55.751Z,26.57
2023-01-19T02:23:55.739Z,28.08
2023-01-19T02:24:55.715Z,26.02
2023-01-19T02:25:55.707Z,26.70
2023-01-19T02:26:55.699Z,29.40
2023-01-19T02:27:55.663Z,26.69
2023-01-19T02:28:55.663Z,26.70
2023-01-19T02:29:55.628Z,25.81
2023-01-19T02:30:55.633Z,30.16
2023-01-19T02:31:55.594Z,30.45
2023-01-19T02:32:55.569Z,25.00
2023-01-19T02:33:55.551Z,27.33
2023-01-19T02:34:55.518Z,30.31
2023-01-19T02:35:55.498Z,30.15
2023-01-19T02:36:55.485Z,29.29
2023-01-19T02:37:55.465Z,26.80
2023-01-19T02:38:55.451Z,31.66
2023-01-19T02:39:55.445Z,33.28
2023-01-19T02:40:55.395Z,30.18
2023-01-19T02:41:55.371Z,29.39
2023-01-19T02:42:55.346Z,33.89
2023-01-19T02:43:55.338Z,28.29
2023-01-19T02:44:55.311Z,30.10
2023-01-19T02:45:55.316Z,33.40
2023-01-19T02:46:55.278Z,30.66
2023-01-19T02:47:55.280Z,32.74
2023-01-19T02:48:55.246Z,33.14
2023-01-19T02:49:55.239Z,28.69
2023-01-19T02:50:55.224Z,30.48
2023-01-19T02:51:55.211Z,29.94
2023-01-19T02:52:55.187Z,29.85
2023-01-19T02:53:55.189Z,28.43
2023-01-19T02:54:55.158Z,29.13
2023-01-19T02:55:55.137Z,30.02
2023-01-19T02:56:55.115Z,27.20
2023-01-19T02:57:55.093Z,28.78
2023-01-19T02:58:55.088Z,27.25
2023-01-19T02:59:55.060Z,30.83
2023-01-19T03:00:55.074Z,30.23
2023-01-19T03:01:55.091Z,30.26
2023-01-19T03:02:55.059Z,28.47
2023-01-19T03:03:54.982Z,27.79
2023-01-19T03:04:54.949Z,28.18
2023-01-19T03:05:54.929Z,27.23
2023-01-19T03:06:54.923Z,30.54
2023-01-19T03:07:54.897Z,29.08
2023-01-19T03:08:54.897Z,25.00
2023-01-19T03:09:54.866Z,31.45
2023-01-19T03:10:54.832Z,27.20
2023-01-19T03:11:54.812Z,27.29
2023-01-19T03:12:54.793Z,32.20
2023-01-19T03:13:54.799Z,32.35
2023-01-19T03:14:54.770Z,29.77
2023-01-19T03:15:54.849Z,31.51
2023-01-19T03:16:54.787Z,31.74
2023-01-19T03:17:54.681Z,27.91
2023-01-19T03:18:54.673Z,25.00
2023-01-19T03:19:54.646Z,30.14
2023-01-19T03:20:54.643Z,31.08
2023-01-19T03:21:54.608Z,26.78
2023-01-19T03:22:54.582Z,28.19
2023-01-19T03:23:54.568Z,26.67
2023-01-19T03:24:54.551Z,31.78
2023-01-19T03:25:54.537Z,32.19
2023-01-19T03:26:54.515Z,33.30
2023-01-19T03:27:54.499Z,28.40
2023-01-19T03:28:54.474Z,29.95
2023-01-19T03:29:54.451Z,26.67
2023-01-19T03:30:54.448Z,27.88
2023-01-19T03:31:54.414Z,25.00
2023-01-19T03:32:54.396Z,28.90
2023-01-19T03:33:54.393Z,33.20
2023-01-19T03:34:54.358Z,30.89
2023-01-19T03:35:54.333Z,29.88
2023-01-19T03:36:54.313Z,32.41
2023-01-19T03:37:54.296Z,25.39
2023-01-19T03:38:54.270Z,28.70
2023-01-19T03:39:54.265Z,28.37
2023-01-19T03:40:54.240Z,28.45
2023-01-19T03:41:54.217Z,29.03
2023-01-19T03:42:54.193Z,32.76
2023-01-19T03:43:54.167Z,27.11
2023-01-19T03:44:54.134Z,26.09
2023-01-19T03:45:54.120Z,31.20
2023-01-19T03:46:54.089Z,29.42
2023-01-19T03:47:54.072Z,29.50
2023-01-19T03:48:54.051Z,28.98
2023-01-19T03:49:54.044Z,28.58
2023-01-19T03:50:54.009Z,28.87
2023-01-19T03:51:53.980Z,28.31
2023-01-19T03:52:53.961Z,27.44
2023-01-19T03:53:53.947Z,30.09
2023-01-19T03:54:53.925Z,28.32
2023-01-19T03:55:53.908Z,31.92
2023-01-19T03:56:53.877Z,29.15
2023-01-19T03:57:53.855Z,29.40
2023-01-19T03:58:56.117Z,29.23
2023-01-19T03:59:53.825Z,33.61
2023-01-19T04:00:53.844Z,27.09
2023-01-19T04:01:53.864Z,28.47
2023-01-19T04:02:53.762Z,30.72
2023-01-19T04:03:53.734Z,31.39
2023-01-19T04:04:53.715Z,25.79
2023-01-19T04:05:53.683Z,27.60
2023-01-19T04:06:53.659Z,29.01
2023-01-19T04:07:53.647Z,29.22
2023-01-19T04:08:53.621Z,28.78
2023-01-19T04:09:53.612Z,28.79
2023-01-19T04:10:53.587Z,25.98
2023-01-19T04:11:53.563Z,30.48
2023-01-19T04:12:53.561Z,29.63
2023-01-19T04:13:53.523Z,28.39
2023-01-19T04:14:53.493Z,28.70
2023-01-19T04:15:53.500Z,30.65
2023-01-19T04:16:53.443Z,31.39
2023-01-19T04:17:53.413Z,27.91
2023-01-19T04:18:53.416Z,31.40
2023-01-19T04:19:53.372Z,33.13
2023-01-19T04:20:53.332Z,31.04
2023-01-19T04:21:53.309Z,25.11
2023-01-19T04:22:53.280Z,25.38
2023-01-19T04:23:53.264Z,26.19
2023-01-19T04:24:53.238Z,26.26
2023-01-19T04:25:53.218Z,27.31
2023-01-19T04:26:53.220Z,25.44
2023-01-19T04:27:53.183Z,26.18
2023-01-19T04:28:53.143Z,26.61
2023-01-19T04:29:53.121Z,27.65
2023-01-19T04:30:53.214Z,28.31
2023-01-19T04:31:53.081Z,28.36
2023-01-19T04:32:53.055Z,26.43
2023-01-19T04:33:53.046Z,26.80
2023-01-19T04:34:53.010Z,26.41
2023-01-19T04:35:54.437Z,26.64
2023-01-19T04:36:52.964Z,27.12
2023-01-19T04:37:52.929Z,27.28
2023-01-19T04:38:52.897Z,29.22
2023-01-19T04:39:52.886Z,31.08
2023-01-19T04:40:52.893Z,27.66
2023-01-19T04:41:52.829Z,28.48
2023-01-19T04:42:52.798Z,29.04
2023-01-19T04:43:52.791Z,26.16
2023-01-19T04:44:52.754Z,28.03
2023-01-19T04:45:52.736Z,28.23
2023-01-19T04:46:52.724Z,28.27
2023-01-19T04:47:52.694Z,28.29
2023-01-19T04:48:52.675Z,28.77
2023-01-19T04:49:52.643Z,28.96
2023-01-19T04:50:52.637Z,23.29
2023-01-19T04:51:52.601Z,27.28
2023-01-19T04:52:52.595Z,27.49
2023-01-19T04:53:52.545Z,28.18
2023-01-19T04:54:52.549Z,26.20
2023-01-19T04:55:52.495Z,27.41
2023-01-19T04:56:52.473Z,29.59
2023-01-19T04:57:52.441Z,27.24
2023-01-19T04:58:52.412Z,27.24
2023-01-19T04:59:52.394Z,25.76
2023-01-19T05:00:52.420Z,27.26
2023-01-19T05:01:52.385Z,30.02
2023-01-19T05:02:52.344Z,31.20
2023-01-19T05:03:52.302Z,29.71
2023-01-19T05:04:52.259Z,30.98
2023-01-19T05:05:52.246Z,30.74
2023-01-19T05:06:52.209Z,27.21
2023-01-19T05:07:52.186Z,28.78
2023-01-19T05:08:52.157Z,29.61
2023-01-19T05:09:52.145Z,30.55
2023-01-19T05:10:52.148Z,29.24
2023-01-19T05:11:52.096Z,30.96
2023-01-19T05:12:52.075Z,28.71
2023-01-19T05:13:52.057Z,29.16
2023-01-19T05:14:52.035Z,27.78
2023-01-19T05:15:52.102Z,31.58
2023-01-19T05:16:51.988Z,28.97
2023-01-19T05:17:51.959Z,27.41
2023-01-19T05:18:51.940Z,31.09
2023-01-19T05:19:51.901Z,30.31
2023-01-19T05:20:51.889Z,28.78
2023-01-19T05:21:51.883Z,31.64
2023-01-19T05:22:51.841Z,30.62
2023-01-19T05:23:51.850Z,33.13
2023-01-19T05:24:51.811Z,27.93
2023-01-19T05:25:51.792Z,29.78
2023-01-19T05:26:51.740Z,31.91
2023-01-19T05:27:51.733Z,31.22
2023-01-19T05:28:51.703Z,30.20
2023-01-19T05:29:51.672Z,32.08
2023-01-19T05:30:51.679Z,33.77
2023-01-19T05:31:51.671Z,29.41
2023-01-19T05:32:51.646Z,28.13
2023-01-19T05:33:51.606Z,30.47
2023-01-19T05:34:51.566Z,33.07
2023-01-19T05:35:51.541Z,31.56
2023-01-19T05:36:51.521Z,30.42
2023-01-19T05:37:51.509Z,25.00
2023-01-19T05:38:51.479Z,28.66
2023-01-19T05:39:51.459Z,29.07
2023-01-19T05:40:51.445Z,31.28
2023-01-19T05:41:51.416Z,31.46
2023-01-19T05:42:51.385Z,27.25
2023-01-19T05:43:51.371Z,29.33
2023-01-19T05:44:51.346Z,29.47
2023-01-19T05:45:51.313Z,29.37
2023-01-19T05:46:51.346Z,30.24
2023-01-19T05:47:51.259Z,30.57
2023-01-19T05:48:51.222Z,28.37
2023-01-19T05:49:51.200Z,27.56
2023-01-19T05:50:51.186Z,30.56
2023-01-19T05:51:51.159Z,30.14
2023-01-19T05:52:51.121Z,28.65
2023-01-19T05:53:51.146Z,26.24
2023-01-19T05:54:51.065Z,30.02
2023-01-19T05:55:51.026Z,30.77
2023-01-19T05:56:51.011Z,27.94
2023-01-19T05:57:50.980Z,27.33
2023-01-19T05:58:50.947Z,27.47
2023-01-19T05:59:50.930Z,28.34
2023-01-19T06:00:50.953Z,28.95
2023-01-19T06:01:50.991Z,29.69
2023-01-19T06:02:50.918Z,27.37
2023-01-19T06:03:50.807Z,30.01
2023-01-19T06:04:50.793Z,27.29
2023-01-19T06:05:50.769Z,27.10
2023-01-19T06:06:50.735Z,26.21
2023-01-19T06:07:50.702Z,31.82
2023-01-19T06:08:50.676Z,28.92
2023-01-19T06:09:50.649Z,28.80
2023-01-19T06:10:50.634Z,31.57
2023-01-19T06:11:50.604Z,30.76
2023-01-19T06:12:50.575Z,27.14
2023-01-19T06:13:50.549Z,30.15
2023-01-19T06:14:50.537Z,31.16
2023-01-19T06:15:50.509Z,30.60
2023-01-19T06:16:50.507Z,30.43
2023-01-19T06:17:50.456Z,28.64
2023-01-19T06:18:50.443Z,25.28
2023-01-19T06:19:50.420Z,32.85
2023-01-19T06:20:50.394Z,26.85
2023-01-19T06:21:50.384Z,28.77
2023-01-19T06:22:50.355Z,29.02
2023-01-19T06:23:50.328Z,29.13
2023-01-19T06:24:50.314Z,28.86
2023-01-19T06:25:50.287Z,32.91
2023-01-19T06:26:50.255Z,31.40
2023-01-19T06:27:50.292Z,31.74
2023-01-19T06:28:50.227Z,30.69
2023-01-19T06:29:50.198Z,33.57
2023-01-19T06:30:50.206Z,33.14
2023-01-19T06:31:50.194Z,33.95
2023-01-19T06:32:50.133Z,34.73
2023-01-19T06:33:50.162Z,35.76
2023-01-19T06:34:51.055Z,35.82
2023-01-19T06:35:50.092Z,34.93
2023-01-19T06:36:50.067Z,35.18
2023-01-19T06:37:50.044Z,36.65
2023-01-19T06:38:50.053Z,34.79
2023-01-19T06:39:50.000Z,36.88
2023-01-19T06:40:49.973Z,36.99
2023-01-19T06:41:49.975Z,36.93
2023-01-19T06:42:50.051Z,33.86
2023-01-19T06:43:49.911Z,37.21
2023-01-19T06:44:49.884Z,34.79
2023-01-19T06:45:49.912Z,32.38
2023-01-19T06:46:49.839Z,34.22
2023-01-19T06:47:49.846Z,32.92
2023-01-19T06:48:49.816Z,31.95
2023-01-19T06:49:49.780Z,35.43
2023-01-19T06:50:49.756Z,50.71
2023-01-19T06:51:49.750Z,46.43
2023-01-19T06:52:49.719Z,47.85
2023-01-19T06:53:49.690Z,52.35
2023-01-19T06:54:49.804Z,60.48
2023-01-19T06:55:49.671Z,72.16
2023-01-19T06:56:49.622Z,79.03
2023-01-19T06:57:49.671Z,83.30
2023-01-19T06:58:49.583Z,92.27
2023-01-19T06:59:49.561Z,107.21
2023-01-19T07:00:49.572Z,117.70
2023-01-19T07:01:49.608Z,117.71
2023-01-19T07:02:49.514Z,124.40
2023-01-19T07:03:49.476Z,139.51
2023-01-19T07:04:49.427Z,146.21
2023-01-19T07:05:49.391Z,152.60
2023-01-19T07:06:49.395Z,162.33
2023-01-19T07:07:49.339Z,168.42
2023-01-19T07:08:49.307Z,167.37
2023-01-19T07:09:49.268Z,171.54
2023-01-19T07:11:26.319Z,172.14
2023-01-19T07:11:50.224Z,172.49
2023-01-19T07:12:49.198Z,175.26
2023-01-19T07:13:49.277Z,181.70
2023-01-19T07:14:49.146Z,194.07
2023-01-19T07:15:49.100Z,208.89
2023-01-19T07:16:49.104Z,213.37
2023-01-19T07:17:49.046Z,217.43
2023-01-19T07:18:49.003Z,226.23
2023-01-19T07:19:48.974Z,227.69
2023-01-19T07:20:48.981Z,230.37
2023-01-19T07:21:48.917Z,230.30
2023-01-19T09:18:45.332Z,136.30
2023-01-19T09:37:44.883Z,82.02
2023-01-19T09:38:44.867Z,81.38
2023-01-19T09:39:44.863Z,70.60
2023-01-19T09:40:44.812Z,65.06
2023-01-19T09:41:44.768Z,69.99
2023-01-19T09:42:44.758Z,77.35
2023-01-19T09:43:44.768Z,84.44
2023-01-19T09:44:44.671Z,84.39
2023-01-19T09:45:44.679Z,85.09
2023-01-19T09:46:44.698Z,82.00
2023-01-19T09:47:44.604Z,73.42
2023-01-19T09:48:44.567Z,66.42
2023-01-19T09:49:44.559Z,67.59
2023-01-19T09:50:44.513Z,75.55
2023-01-19T09:51:44.537Z,72.87
2023-01-19T09:52:44.464Z,65.77
2023-01-19T09:53:44.441Z,66.58
2023-01-19T09:54:44.451Z,68.59
2023-01-19T09:55:44.441Z,70.84
2023-01-19T09:56:44.391Z,84.54
2023-01-19T09:57:44.331Z,85.02
2023-01-19T09:58:44.362Z,86.99
2023-01-19T09:59:44.280Z,86.47
2023-01-19T10:00:44.351Z,95.54
2023-01-19T10:01:44.313Z,109.15
2023-01-19T10:02:44.308Z,119.16
2023-01-19T10:03:44.154Z,131.37
2023-01-19T10:04:44.128Z,124.22
2023-01-19T10:05:44.086Z,118.37
2023-01-19T10:06:44.071Z,128.03
2023-01-19T10:07:44.064Z,137.85
2023-01-19T10:08:44.017Z,144.01
2023-01-19T10:09:43.979Z,156.76
2023-01-19T10:10:43.947Z,156.15
2023-01-19T10:11:52.582Z,150.70
2023-01-19T10:12:44.867Z,151.19
2023-01-19T10:13:43.820Z,152.75
2023-01-19T10:14:43.793Z,159.28
2023-01-19T10:15:43.770Z,172.72
2023-01-19T10:16:43.718Z,178.91
2023-01-19T10:17:43.697Z,173.91
2023-01-19T10:18:43.652Z,176.02
2023-01-19T10:19:46.362Z,184.48
2023-01-19T10:20:43.590Z,191.72
2023-01-19T10:21:43.557Z,203.87
2023-01-19T10:22:43.506Z,197.58
2023-01-19T10:23:43.458Z,195.54
2023-01-19T10:24:43.424Z,198.18
2023-01-19T10:25:43.496Z,193.44
2023-01-19T10:26:43.377Z,208.49
2023-01-19T10:27:43.354Z,219.25
2023-01-19T10:28:43.272Z,219.82
2023-01-19T10:29:43.231Z,208.17
2023-01-19T10:30:43.239Z,208.48
2023-01-19T10:31:43.172Z,209.45
2023-01-19T10:32:43.102Z,212.89
2023-01-19T10:33:43.059Z,223.53
2023-01-19T10:34:43.015Z,226.84
2023-01-19T10:35:43.006Z,214.36
2023-01-19T10:36:42.977Z,240.27
2023-01-19T10:37:42.918Z,238.18
2023-01-19T10:38:42.883Z,244.09
2023-01-19T10:39:42.831Z,248.87
2023-01-19T10:40:42.793Z,249.21
2023-01-19T10:41:42.723Z,239.57
2023-01-19T10:42:42.691Z,237.81
2023-01-19T10:43:42.614Z,237.79
2023-01-19T10:44:42.581Z,240.91
2023-01-19T10:45:42.582Z,230.25
2023-01-19T10:46:42.501Z,185.26
2023-01-19T10:47:42.484Z,46.69
2023-01-19T10:48:42.411Z,0.00
2023-01-19T10:49:42.492Z,0.00
2023-01-19T10:50:42.462Z,0.00
2023-01-19T10:51:42.384Z,0.00
2023-01-19T10:52:42.354Z,0.00
2023-01-19T10:53:42.379Z,0.00
2023-01-19T10:54:42.373Z,0.00
2023-01-19T10:55:42.376Z,0.00
2023-01-19T10:56:42.430Z,0.00
2023-01-19T10:57:42.568Z,0.00
2023-01-19T10:58:42.500Z,0.00
2023-01-19T10:59:42.494Z,0.00
2023-01-19T11:00:42.650Z,0.00
2023-01-19T11:01:42.640Z,0.00
2023-01-19T11:02:42.655Z,0.00
2023-01-19T11:03:42.608Z,0.00
2023-01-19T11:04:42.721Z,0.00
2023-01-19T11:05:42.718Z,0.00
2023-01-19T11:06:42.767Z,0.00
2023-01-19T11:07:42.809Z,0.00
2023-01-19T11:08:42.853Z,16.05
2023-01-19T11:09:42.911Z,47.39
2023-01-19T11:10:42.957Z,48.20
2023-01-19T11:11:42.997Z,52.37
2023-01-19T11:12:43.029Z,48.54
2023-01-19T11:13:43.069Z,52.92
2023-01-19T11:14:43.112Z,61.93
2023-01-19T11:15:43.111Z,79.28
2023-01-19T11:16:43.176Z,106.61
2023-01-19T11:17:43.140Z,118.09
2023-01-19T11:18:43.158Z,115.77
2023-01-19T11:19:43.194Z,119.86
2023-01-19T11:20:43.172Z,121.24
2023-01-19T11:21:43.175Z,126.11
2023-01-19T11:22:43.173Z,140.48
2023-01-19T11:23:43.193Z,149.79
2023-01-19T11:24:43.174Z,147.04
2023-01-19T11:25:43.149Z,150.56
2023-01-19T11:26:43.169Z,152.29
2023-01-19T11:27:43.143Z,156.04
2023-01-19T11:28:45.054Z,164.31
2023-01-19T11:29:43.123Z,170.36
2023-01-19T11:30:43.133Z,164.02
2023-01-19T11:31:43.154Z,167.70
2023-01-19T11:32:43.132Z,168.37
2023-01-19T11:33:43.117Z,176.71
2023-01-19T11:34:43.095Z,187.44
2023-01-19T11:35:43.099Z,186.87
2023-01-19T11:36:43.090Z,178.82
2023-01-19T11:37:43.093Z,190.07
2023-01-19T11:38:43.065Z,196.06
2023-01-19T11:39:43.058Z,207.08
2023-01-19T11:40:43.035Z,198.52
2023-01-19T11:41:43.042Z,130.08
2023-01-19T11:42:43.028Z,87.25
2023-01-19T11:43:49.020Z,66.60
2023-01-19T11:44:44.053Z,49.36
2023-01-19T11:45:43.179Z,57.87
2023-01-19T11:46:43.150Z,68.08
2023-01-19T11:47:43.176Z,83.65
2023-01-19T11:48:43.184Z,115.65
2023-01-19T11:49:43.233Z,129.92
2023-01-19T11:50:43.256Z,140.03
2023-01-19T11:51:43.290Z,142.60
2023-01-19T11:52:43.324Z,157.59
2023-01-19T11:53:43.291Z,160.80
2023-01-19T11:54:43.574Z,159.21
2023-01-19T11:55:43.342Z,161.66
2023-01-19T11:56:43.329Z,164.26
2023-01-19T11:57:43.329Z,175.41
2023-01-19T11:58:43.335Z,179.24
2023-01-19T11:59:43.340Z,176.45
2023-01-19T12:00:43.345Z,173.10
2023-01-19T12:01:43.354Z,173.35
2023-01-19T12:02:43.346Z,175.97
2023-01-19T12:03:43.373Z,180.06
2023-01-19T12:04:43.360Z,185.25
2023-01-19T12:05:43.342Z,186.03
2023-01-19T12:06:43.342Z,178.94
2023-01-19T12:07:43.345Z,179.56
2023-01-19T12:08:43.321Z,179.71
2023-01-19T12:09:43.321Z,184.99
2023-01-19T12:10:43.311Z,188.98
2023-01-19T12:11:43.322Z,186.29
2023-01-19T12:12:43.291Z,175.03
2023-01-19T12:13:43.277Z,169.55
2023-01-19T12:14:43.288Z,162.99
2023-01-19T12:15:43.268Z,157.04
2023-01-19T12:16:43.350Z,150.54
2023-01-19T12:17:43.255Z,154.63
2023-01-19T12:18:43.267Z,148.54
2023-01-19T12:19:43.258Z,104.18
2023-01-19T12:20:43.276Z,101.28
2023-01-19T12:21:43.280Z,97.97
2023-01-19T12:22:43.301Z,98.86
2023-01-19T12:23:43.303Z,103.00
2023-01-19T12:24:43.296Z,108.18
2023-01-19T12:25:43.315Z,117.44
2023-01-19T12:26:43.303Z,131.54
2023-01-19T12:27:43.317Z,137.54
2023-01-19T12:28:43.306Z,146.34
2023-01-19T12:29:43.575Z,142.40
2023-01-19T12:30:43.430Z,143.77
2023-01-19T12:31:43.507Z,148.50
2023-01-19T12:32:43.278Z,154.59
2023-01-19T12:33:43.265Z,164.40
2023-01-19T12:34:43.261Z,166.82
2023-01-19T12:35:43.249Z,169.26
2023-01-19T12:36:43.223Z,171.47
2023-01-19T12:37:43.231Z,174.21
2023-01-19T12:38:43.195Z,179.94
2023-01-19T12:39:43.198Z,183.69
2023-01-19T12:40:43.190Z,185.09
2023-01-19T12:41:43.168Z,186.34
2023-01-19T12:42:43.165Z,187.40
2023-01-19T12:43:43.127Z,186.82
2023-01-19T12:44:43.115Z,188.79
2023-01-19T12:45:43.092Z,190.06
2023-01-19T13:41:42.210Z,174.07
2023-01-19T13:42:42.194Z,168.25
2023-01-19T13:43:42.185Z,171.69
2023-01-19T13:44:42.172Z,170.32
2023-01-19T13:45:42.157Z,174.26
2023-01-19T13:46:42.226Z,177.16
2023-01-19T13:47:42.131Z,170.62
2023-01-19T13:48:42.110Z,170.07
2023-01-19T13:49:42.091Z,168.83
2023-01-19T13:50:42.071Z,171.55
2023-01-19T13:51:42.063Z,173.50
2023-01-19T13:52:42.037Z,173.82
2023-01-19T13:53:42.035Z,167.13
2023-01-19T13:54:42.230Z,165.23
2023-01-19T13:55:42.039Z,172.20
2023-01-19T13:56:42.004Z,173.80
2023-01-19T13:57:42.005Z,173.61
2023-01-19T13:58:41.975Z,169.31
2023-01-19T13:59:41.968Z,162.50
2023-01-19T14:00:41.956Z,167.88
2023-01-19T14:01:42.098Z,167.99
2023-01-19T14:02:42.039Z,168.65
2023-01-19T14:03:41.916Z,170.20
2023-01-19T14:04:41.891Z,167.91
2023-01-19T14:05:41.918Z,164.40
2023-01-19T14:06:41.857Z,169.00
2023-01-19T14:07:41.870Z,170.21
2023-01-19T14:08:41.838Z,172.47
2023-01-19T14:09:41.810Z,170.35
2023-01-19T14:10:41.791Z,163.96
2023-01-19T14:11:41.785Z,167.36
2023-01-19T14:12:58.183Z,168.71
2023-01-19T14:13:42.785Z,168.82
2023-01-19T14:14:41.729Z,169.39
2023-01-19T14:15:41.783Z,167.12
2023-01-19T14:16:41.697Z,160.96
2023-01-19T14:17:41.684Z,164.92
2023-01-19T14:18:41.672Z,167.76
2023-01-19T14:19:41.681Z,169.65
2023-01-19T14:20:41.636Z,172.16
2023-01-19T14:21:41.644Z,165.81
2023-01-19T14:22:41.620Z,165.13
2023-01-19T14:23:41.591Z,164.95
2023-01-19T14:24:41.570Z,166.78
2023-01-19T14:25:41.549Z,170.44
2023-01-19T14:26:41.539Z,169.62
2023-01-19T14:27:41.520Z,163.41
2023-01-19T14:28:41.504Z,163.49
2023-01-19T14:29:41.483Z,166.21
2023-01-19T14:30:41.488Z,168.70
2023-01-19T14:31:41.528Z,170.56
2023-01-19T14:32:41.425Z,166.86
2023-01-19T14:33:41.464Z,162.81
2023-01-19T14:34:41.560Z,163.99
2023-01-19T14:35:41.379Z,166.52
2023-01-19T14:36:41.347Z,167.84
2023-01-19T14:37:41.337Z,169.59
2023-01-19T14:38:41.314Z,166.43
2023-01-19T14:39:41.297Z,164.65
2023-01-19T14:40:41.276Z,164.28
2023-01-19T14:41:41.255Z,166.60
2023-01-19T14:42:41.247Z,169.08
2023-01-19T14:43:41.245Z,167.78
2023-01-19T14:44:41.199Z,160.18
2023-01-19T14:45:41.188Z,163.18
2023-01-19T14:46:41.199Z,164.01
2023-01-19T14:47:41.140Z,163.49
2023-01-19T14:48:41.109Z,167.74
2023-01-19T14:49:41.101Z,166.95
2023-01-19T14:50:42.803Z,159.00
2023-01-19T14:52:41.042Z,159.76
2023-01-19T14:53:41.021Z,161.24
2023-01-19T14:54:41.019Z,164.65
2023-01-19T14:55:40.979Z,163.44
2023-01-19T14:56:40.971Z,159.35
2023-01-19T14:57:40.983Z,160.74
2023-01-19T14:58:40.928Z,160.16
2023-01-19T14:59:40.904Z,165.08
2023-01-19T15:00:40.913Z,165.19
2023-01-19T15:01:41.052Z,161.06
2023-01-19T15:02:40.910Z,159.19
2023-01-19T15:03:45.660Z,160.38
2023-01-19T15:05:40.808Z,161.28
2023-01-19T15:06:40.786Z,161.89
2023-01-19T15:07:40.781Z,157.82
2023-01-19T15:08:40.751Z,159.69
2023-01-19T15:09:40.751Z,163.31
2023-01-19T15:10:40.721Z,164.91
2023-01-19T15:11:40.709Z,166.86
2023-01-19T15:12:40.693Z,163.41
2023-01-19T15:13:40.695Z,159.28
2023-01-19T15:14:40.681Z,160.42
2023-01-19T15:15:40.657Z,163.01
2023-01-19T15:16:40.627Z,163.68
2023-01-19T15:17:40.624Z,165.19
2023-01-19T15:18:40.596Z,160.51
2023-01-19T15:19:40.599Z,158.14
2023-01-19T15:20:40.575Z,160.20
2023-01-19T15:21:40.547Z,160.29
2023-01-19T15:22:40.525Z,160.90
2023-01-19T15:23:40.510Z,161.20
2023-01-19T15:24:40.492Z,159.83
2023-01-19T15:25:40.478Z,161.33
2023-01-19T15:26:40.458Z,160.17
2023-01-19T15:27:40.460Z,160.18
2023-01-19T15:28:40.438Z,165.10
2023-01-19T15:29:40.489Z,161.78
2023-01-19T15:30:40.435Z,156.98
2023-01-19T15:31:40.419Z,160.83
2023-01-19T15:32:40.376Z,161.03
2023-01-19T15:33:40.352Z,162.77
2023-01-19T15:34:40.347Z,164.45
2023-01-19T15:35:40.395Z,161.66
2023-01-19T15:36:40.304Z,154.09
2023-01-19T15:37:40.289Z,159.53
2023-01-19T15:38:40.271Z,160.72
2023-01-19T15:39:40.253Z,163.15
2023-01-19T15:40:40.244Z,162.65
2023-01-19T15:41:40.223Z,159.94
2023-01-19T15:42:40.212Z,160.00
2023-01-19T15:43:40.194Z,160.30
2023-01-19T15:44:40.160Z,160.11
2023-01-19T15:45:40.152Z,160.91
2023-01-19T15:46:40.146Z,160.63
2023-01-19T15:47:40.107Z,157.55
2023-01-19T15:48:40.112Z,160.96
2023-01-19T15:49:40.072Z,161.23
2023-01-19T15:50:40.068Z,164.34
2023-01-19T15:51:40.037Z,165.89
2023-01-19T15:52:40.021Z,166.06
2023-01-19T15:53:40.004Z,166.72
2023-01-19T15:54:40.015Z,165.93
2023-01-19T15:55:39.993Z,166.35
2023-01-19T15:56:39.993Z,168.01